PLT2260 SBBE-SBEG
Flight info
| Callsign | PLT2260 |
|---|---|
| Flight time | 1h 45m |
| Altitude | 36000 |
| Route | ILMAN UZ81 KULAB |
| Aircraft | B738/M-SDE2E3FGHIRWXY/LB1 |
Departure
| Time | 2026-04-25 05:37 |
|---|---|
| Airport | Val de Cans/Júlio Cezar Ribeiro International Airport (SBBE) |
Arrival
| Time | 2026-04-25 07:23 |
|---|---|
| Airport | Eduardo Gomes International Airport (SBEG) |
| Time | Latitude | Longitude | Altitude | Speed | Heading |
|---|---|---|---|---|---|
| 2026-04-25 05:11 | -1.38929 | -48.47885 | 61 ft | 0 kts | 236° |
| 2026-04-25 05:30 | -1.38922 | -48.47875 | 61 ft | 2 kts | 236° |
| 2026-04-25 05:30 | -1.38914 | -48.47863 | 61 ft | 2 kts | 238° |
| 2026-04-25 05:30 | -1.38910 | -48.47848 | 61 ft | 2 kts | 269° |
| 2026-04-25 05:31 | -1.38912 | -48.47834 | 61 ft | 2 kts | 294° |
| 2026-04-25 05:31 | -1.38920 | -48.47821 | 61 ft | 2 kts | 317° |
| 2026-04-25 05:31 | -1.38933 | -48.47813 | 61 ft | 2 kts | 342° |
| 2026-04-25 05:31 | -1.38945 | -48.47812 | 61 ft | 0 kts | 2° |
| 2026-04-25 05:32 | -1.38952 | -48.47812 | 61 ft | 1 kts | 5° |
| 2026-04-25 05:34 | -1.38932 | -48.47810 | 61 ft | 6 kts | 5° |
| 2026-04-25 05:34 | -1.38863 | -48.47804 | 61 ft | 13 kts | 4° |
| 2026-04-25 05:34 | -1.38748 | -48.47794 | 61 ft | 20 kts | 4° |
| 2026-04-25 05:34 | -1.38667 | -48.47897 | 61 ft | 25 kts | 270° |
| 2026-04-25 05:35 | -1.38672 | -48.48085 | 61 ft | 27 kts | 269° |
| 2026-04-25 05:35 | -1.38710 | -48.48246 | 61 ft | 22 kts | 231° |
| 2026-04-25 05:35 | -1.38798 | -48.48335 | 61 ft | 0 kts | 226° |
| 2026-04-25 05:36 | -1.38799 | -48.48335 | 61 ft | 0 kts | 226° |
| 2026-04-25 05:36 | -1.38809 | -48.48350 | 61 ft | 5 kts | 239° |
| 2026-04-25 05:36 | -1.38820 | -48.48412 | 61 ft | 12 kts | 266° |
| 2026-04-25 05:36 | -1.38759 | -48.48455 | 61 ft | 18 kts | 40° |
| 2026-04-25 05:37 | -1.38617 | -48.48303 | 61 ft | 59 kts | 45° |
| 2026-04-25 05:37 | -1.38134 | -48.47817 | 61 ft | 135 kts | 45° |
| 2026-04-25 05:37 | -1.37325 | -48.47003 | 177 ft | 185 kts | 44° |
| 2026-04-25 05:37 | -1.36424 | -48.46122 | 1139 ft | 181 kts | 46° |
| 2026-04-25 05:38 | -1.35512 | -48.45309 | 1918 ft | 183 kts | 28° |
| 2026-04-25 05:38 | -1.34238 | -48.45028 | 2387 ft | 197 kts | 355° |
| 2026-04-25 05:38 | -1.32869 | -48.45419 | 2874 ft | 215 kts | 333° |
| 2026-04-25 05:38 | -1.31664 | -48.46363 | 3449 ft | 230 kts | 309° |
| 2026-04-25 05:39 | -1.31044 | -48.47895 | 3996 ft | 249 kts | 274° |
| 2026-04-25 05:39 | -1.31371 | -48.49640 | 4587 ft | 267 kts | 249° |
| 2026-04-25 05:39 | -1.32198 | -48.51306 | 5290 ft | 276 kts | 243° |
| 2026-04-25 05:39 | -1.33138 | -48.53006 | 6105 ft | 281 kts | 243° |
| 2026-04-25 05:40 | -1.34059 | -48.54729 | 6886 ft | 286 kts | 244° |
| 2026-04-25 05:40 | -1.34973 | -48.56522 | 7642 ft | 292 kts | 245° |
| 2026-04-25 05:40 | -1.35938 | -48.58316 | 8413 ft | 297 kts | 238° |
| 2026-04-25 05:40 | -1.37205 | -48.59951 | 9149 ft | 303 kts | 228° |
| 2026-04-25 05:41 | -1.38688 | -48.61446 | 9883 ft | 308 kts | 224° |
| 2026-04-25 05:41 | -1.40273 | -48.62945 | 10482 ft | 318 kts | 223° |
| 2026-04-25 05:41 | -1.41918 | -48.64519 | 10896 ft | 334 kts | 225° |
| 2026-04-25 05:41 | -1.43546 | -48.66219 | 11301 ft | 349 kts | 227° |
| 2026-04-25 05:42 | -1.45108 | -48.68141 | 11653 ft | 365 kts | 238° |
| 2026-04-25 05:42 | -1.46134 | -48.70500 | 12094 ft | 375 kts | 257° |
| 2026-04-25 05:42 | -1.46520 | -48.73113 | 12720 ft | 380 kts | 266° |
| 2026-04-25 05:42 | -1.46725 | -48.75754 | 13310 ft | 386 kts | 267° |
| 2026-04-25 05:43 | -1.46903 | -48.78451 | 13904 ft | 391 kts | 267° |
| 2026-04-25 05:43 | -1.47078 | -48.81180 | 14527 ft | 395 kts | 267° |
| 2026-04-25 05:43 | -1.47255 | -48.83895 | 15105 ft | 400 kts | 267° |
| 2026-04-25 05:43 | -1.47442 | -48.86672 | 15699 ft | 403 kts | 266° |
| 2026-04-25 05:44 | -1.47639 | -48.89519 | 16208 ft | 409 kts | 266° |
| 2026-04-25 05:44 | -1.47838 | -48.92352 | 16791 ft | 412 kts | 266° |
| 2026-04-25 05:44 | -1.48042 | -48.95212 | 17305 ft | 417 kts | 266° |
| 2026-04-25 05:44 | -1.48250 | -48.98125 | 17765 ft | 423 kts | 266° |
| 2026-04-25 05:45 | -1.48460 | -49.01059 | 18348 ft | 425 kts | 266° |
| 2026-04-25 05:45 | -1.48672 | -49.04022 | 18863 ft | 428 kts | 266° |
| 2026-04-25 05:45 | -1.48885 | -49.07004 | 19448 ft | 429 kts | 266° |
| 2026-04-25 05:45 | -1.49097 | -49.09970 | 19924 ft | 433 kts | 266° |
| 2026-04-25 05:46 | -1.49315 | -49.12989 | 20401 ft | 437 kts | 266° |
| 2026-04-25 05:46 | -1.49629 | -49.16019 | 20866 ft | 440 kts | 263° |
| 2026-04-25 05:46 | -1.50071 | -49.19013 | 21411 ft | 441 kts | 261° |
| 2026-04-25 05:46 | -1.50585 | -49.22042 | 21849 ft | 445 kts | 260° |
| 2026-04-25 05:47 | -1.51137 | -49.25131 | 22275 ft | 448 kts | 259° |
| 2026-04-25 05:47 | -1.51685 | -49.28182 | 22691 ft | 452 kts | 259° |
| 2026-04-25 05:47 | -1.52235 | -49.31276 | 23139 ft | 454 kts | 260° |
| 2026-04-25 05:47 | -1.52782 | -49.34403 | 23547 ft | 458 kts | 260° |
| 2026-04-25 05:48 | -1.53322 | -49.37538 | 23960 ft | 461 kts | 260° |
| 2026-04-25 05:48 | -1.53859 | -49.40700 | 24393 ft | 464 kts | 260° |
| 2026-04-25 05:48 | -1.54396 | -49.43888 | 24772 ft | 467 kts | 261° |
| 2026-04-25 05:48 | -1.54936 | -49.47119 | 25188 ft | 470 kts | 260° |
| 2026-04-25 05:49 | -1.55475 | -49.50363 | 25577 ft | 473 kts | 260° |
| 2026-04-25 05:49 | -1.56009 | -49.53582 | 25968 ft | 476 kts | 260° |
| 2026-04-25 05:49 | -1.56553 | -49.56860 | 26374 ft | 478 kts | 260° |
| 2026-04-25 05:49 | -1.57101 | -49.60164 | 26728 ft | 482 kts | 260° |
| 2026-04-25 05:50 | -1.57645 | -49.63444 | 27125 ft | 484 kts | 260° |
| 2026-04-25 05:50 | -1.58201 | -49.66798 | 27496 ft | 486 kts | 260° |
| 2026-04-25 05:50 | -1.58749 | -49.70101 | 27882 ft | 488 kts | 260° |
| 2026-04-25 05:50 | -1.59304 | -49.73457 | 28196 ft | 491 kts | 260° |
| 2026-04-25 05:51 | -1.59869 | -49.76872 | 28525 ft | 494 kts | 260° |
| 2026-04-25 05:51 | -1.60423 | -49.80217 | 28880 ft | 496 kts | 260° |
| 2026-04-25 05:51 | -1.60991 | -49.83640 | 29401 ft | 494 kts | 260° |
| 2026-04-25 05:51 | -1.61544 | -49.86977 | 30060 ft | 488 kts | 260° |
| 2026-04-25 05:52 | -1.62095 | -49.90302 | 30768 ft | 481 kts | 260° |
| 2026-04-25 05:52 | -1.62636 | -49.93569 | 31377 ft | 477 kts | 260° |
| 2026-04-25 05:52 | -1.63174 | -49.96818 | 31856 ft | 475 kts | 260° |
| 2026-04-25 05:52 | -1.63718 | -50.00109 | 32300 ft | 473 kts | 260° |
| 2026-04-25 05:53 | -1.64253 | -50.03336 | 32727 ft | 472 kts | 260° |
| 2026-04-25 05:53 | -1.64788 | -50.06562 | 33180 ft | 470 kts | 260° |
| 2026-04-25 05:53 | -1.65318 | -50.09757 | 33636 ft | 468 kts | 260° |
| 2026-04-25 05:53 | -1.65851 | -50.12974 | 34027 ft | 468 kts | 260° |
| 2026-04-25 05:54 | -1.66379 | -50.16166 | 34350 ft | 468 kts | 260° |
| 2026-04-25 05:54 | -1.66917 | -50.19413 | 34665 ft | 469 kts | 260° |
| 2026-04-25 05:54 | -1.67977 | -50.25828 | 35354 ft | 468 kts | 260° |
| 2026-04-25 05:55 | -1.68508 | -50.29040 | 35654 ft | 468 kts | 260° |
| 2026-04-25 05:55 | -1.69035 | -50.32222 | 35889 ft | 469 kts | 260° |
| 2026-04-25 05:55 | -1.70110 | -50.38702 | 35884 ft | 471 kts | 259° |
| 2026-04-25 05:56 | -1.71177 | -50.45134 | 35885 ft | 469 kts | 260° |
| 2026-04-25 05:56 | -1.72245 | -50.51590 | 35886 ft | 469 kts | 260° |
| 2026-04-25 05:57 | -1.73308 | -50.58021 | 35889 ft | 472 kts | 260° |
| 2026-04-25 05:57 | -1.74379 | -50.64502 | 35892 ft | 471 kts | 260° |
| 2026-04-25 05:58 | -1.75440 | -50.70923 | 35896 ft | 471 kts | 260° |
| 2026-04-25 05:58 | -1.76514 | -50.77421 | 35906 ft | 474 kts | 260° |
| 2026-04-25 05:59 | -1.77585 | -50.83886 | 35905 ft | 473 kts | 260° |
| 2026-04-25 05:59 | -1.78657 | -50.90360 | 35905 ft | 471 kts | 260° |
| 2026-04-25 06:00 | -1.79732 | -50.96861 | 35905 ft | 472 kts | 260° |
| 2026-04-25 06:00 | -1.80796 | -51.03304 | 35905 ft | 471 kts | 260° |
| 2026-04-25 06:01 | -1.81869 | -51.09803 | 35904 ft | 474 kts | 260° |
| 2026-04-25 06:01 | -1.82942 | -51.16298 | 35904 ft | 474 kts | 260° |
| 2026-04-25 06:02 | -1.84012 | -51.22800 | 35904 ft | 473 kts | 260° |
| 2026-04-25 06:02 | -1.85074 | -51.29257 | 35905 ft | 472 kts | 260° |
| 2026-04-25 06:03 | -1.86145 | -51.35760 | 35903 ft | 472 kts | 260° |
| 2026-04-25 06:03 | -1.87209 | -51.42209 | 35904 ft | 472 kts | 260° |
| 2026-04-25 06:04 | -1.88274 | -51.48681 | 35905 ft | 473 kts | 260° |
| 2026-04-25 06:04 | -1.89337 | -51.55137 | 35904 ft | 471 kts | 260° |
| 2026-04-25 06:05 | -1.90406 | -51.61615 | 35905 ft | 473 kts | 260° |
| 2026-04-25 06:05 | -1.91477 | -51.68113 | 35904 ft | 472 kts | 260° |
| 2026-04-25 06:06 | -1.92545 | -51.74600 | 35897 ft | 473 kts | 260° |
| 2026-04-25 06:06 | -1.93609 | -51.81066 | 35888 ft | 475 kts | 260° |
| 2026-04-25 06:07 | -1.94679 | -51.87558 | 35885 ft | 474 kts | 260° |
| 2026-04-25 06:07 | -1.95753 | -51.94094 | 35885 ft | 474 kts | 261° |
| 2026-04-25 06:08 | -1.96819 | -52.00573 | 35884 ft | 474 kts | 261° |
| 2026-04-25 06:08 | -1.97882 | -52.07045 | 35886 ft | 474 kts | 261° |
| 2026-04-25 06:09 | -1.98956 | -52.13560 | 35896 ft | 473 kts | 261° |
| 2026-04-25 06:09 | -2.00021 | -52.20020 | 35905 ft | 472 kts | 261° |
| 2026-04-25 06:10 | -2.01088 | -52.26500 | 35905 ft | 473 kts | 261° |
| 2026-04-25 06:10 | -2.02156 | -52.33000 | 35906 ft | 472 kts | 261° |
| 2026-04-25 06:11 | -2.03220 | -52.39486 | 35906 ft | 471 kts | 261° |
| 2026-04-25 06:11 | -2.04277 | -52.45931 | 35906 ft | 472 kts | 261° |
| 2026-04-25 06:12 | -2.05331 | -52.52389 | 35906 ft | 471 kts | 261° |
| 2026-04-25 06:12 | -2.06379 | -52.58865 | 35907 ft | 470 kts | 261° |
| 2026-04-25 06:13 | -2.07416 | -52.65286 | 35907 ft | 470 kts | 261° |
| 2026-04-25 06:14 | -2.08982 | -52.74969 | 35908 ft | 470 kts | 261° |
| 2026-04-25 06:14 | -2.10028 | -52.81388 | 35909 ft | 468 kts | 261° |
| 2026-04-25 06:15 | -2.11079 | -52.87831 | 35910 ft | 468 kts | 261° |
| 2026-04-25 06:15 | -2.12126 | -52.94249 | 35909 ft | 469 kts | 261° |
| 2026-04-25 06:16 | -2.13165 | -53.00641 | 35910 ft | 468 kts | 261° |
| 2026-04-25 06:16 | -2.14210 | -53.07069 | 35910 ft | 469 kts | 261° |
| 2026-04-25 06:17 | -2.15259 | -53.13517 | 35911 ft | 469 kts | 261° |
| 2026-04-25 06:17 | -2.16306 | -53.19937 | 35911 ft | 469 kts | 261° |
| 2026-04-25 06:18 | -2.17361 | -53.26374 | 35907 ft | 468 kts | 261° |
| 2026-04-25 06:18 | -2.18411 | -53.32806 | 35898 ft | 469 kts | 261° |
| 2026-04-25 06:19 | -2.19462 | -53.39245 | 35900 ft | 470 kts | 261° |
| 2026-04-25 06:19 | -2.20517 | -53.45719 | 35895 ft | 469 kts | 261° |
| 2026-04-25 06:20 | -2.21567 | -53.52161 | 35895 ft | 470 kts | 261° |
| 2026-04-25 06:20 | -2.22612 | -53.58584 | 35894 ft | 469 kts | 261° |
| 2026-04-25 06:21 | -2.23655 | -53.64993 | 35896 ft | 469 kts | 261° |
| 2026-04-25 06:21 | -2.24702 | -53.71424 | 35894 ft | 469 kts | 261° |
| 2026-04-25 06:22 | -2.25749 | -53.77858 | 35892 ft | 470 kts | 261° |
| 2026-04-25 06:22 | -2.26802 | -53.84324 | 35896 ft | 471 kts | 261° |
| 2026-04-25 06:23 | -2.27854 | -53.90775 | 35896 ft | 469 kts | 261° |
| 2026-04-25 06:23 | -2.28901 | -53.97195 | 35890 ft | 469 kts | 261° |
| 2026-04-25 06:24 | -2.29949 | -54.03621 | 35899 ft | 470 kts | 261° |
| 2026-04-25 06:24 | -2.31004 | -54.10100 | 35906 ft | 470 kts | 261° |
| 2026-04-25 06:25 | -2.32051 | -54.16531 | 35908 ft | 470 kts | 261° |
| 2026-04-25 06:25 | -2.33098 | -54.22953 | 35908 ft | 470 kts | 261° |
| 2026-04-25 06:26 | -2.34147 | -54.29399 | 35908 ft | 470 kts | 261° |
| 2026-04-25 06:26 | -2.35195 | -54.35838 | 35907 ft | 470 kts | 261° |
| 2026-04-25 06:27 | -2.36248 | -54.42308 | 35907 ft | 470 kts | 261° |
| 2026-04-25 06:27 | -2.37293 | -54.48739 | 35908 ft | 471 kts | 261° |
| 2026-04-25 06:28 | -2.38301 | -54.55196 | 35908 ft | 471 kts | 262° |
| 2026-04-25 06:28 | -2.39197 | -54.61680 | 35912 ft | 469 kts | 262° |
| 2026-04-25 06:29 | -2.40065 | -54.68141 | 35915 ft | 469 kts | 263° |
| 2026-04-25 06:29 | -2.40935 | -54.74581 | 35916 ft | 470 kts | 262° |
| 2026-04-25 06:30 | -2.41673 | -54.79990 | 35915 ft | 470 kts | 262° |
| 2026-04-25 06:30 | -2.42708 | -54.87525 | 35914 ft | 470 kts | 262° |
| 2026-04-25 06:31 | -2.43601 | -54.94002 | 35912 ft | 470 kts | 262° |
| 2026-04-25 06:31 | -2.44489 | -55.00425 | 35910 ft | 468 kts | 262° |
| 2026-04-25 06:32 | -2.45382 | -55.06889 | 35910 ft | 469 kts | 262° |
| 2026-04-25 06:32 | -2.46274 | -55.13344 | 35908 ft | 469 kts | 262° |
| 2026-04-25 06:33 | -2.47162 | -55.19779 | 35908 ft | 469 kts | 262° |
| 2026-04-25 06:33 | -2.48052 | -55.26234 | 35908 ft | 469 kts | 262° |
| 2026-04-25 06:34 | -2.48946 | -55.32719 | 35908 ft | 469 kts | 262° |
| 2026-04-25 06:34 | -2.49828 | -55.39130 | 35911 ft | 469 kts | 262° |
| 2026-04-25 06:35 | -2.50632 | -55.45611 | 35914 ft | 468 kts | 263° |
| 2026-04-25 06:35 | -2.51360 | -55.52072 | 35914 ft | 470 kts | 264° |
| 2026-04-25 06:36 | -2.52087 | -55.58586 | 35914 ft | 469 kts | 264° |
| 2026-04-25 06:36 | -2.52814 | -55.65037 | 35913 ft | 468 kts | 264° |
| 2026-04-25 06:37 | -2.53548 | -55.71480 | 35913 ft | 468 kts | 263° |
| 2026-04-25 06:37 | -2.54290 | -55.77931 | 35914 ft | 468 kts | 263° |
| 2026-04-25 06:38 | -2.55034 | -55.84410 | 35911 ft | 468 kts | 263° |
| 2026-04-25 06:38 | -2.55776 | -55.90871 | 35906 ft | 468 kts | 263° |
| 2026-04-25 06:39 | -2.56517 | -55.97306 | 35902 ft | 467 kts | 263° |
| 2026-04-25 06:39 | -2.57260 | -56.03767 | 35896 ft | 468 kts | 263° |
| 2026-04-25 06:40 | -2.57999 | -56.10191 | 35896 ft | 468 kts | 263° |
| 2026-04-25 06:40 | -2.58745 | -56.16682 | 35896 ft | 467 kts | 263° |
| 2026-04-25 06:41 | -2.59482 | -56.23098 | 35899 ft | 467 kts | 263° |
| 2026-04-25 06:41 | -2.60225 | -56.29571 | 35902 ft | 466 kts | 263° |
| 2026-04-25 06:42 | -2.60965 | -56.36000 | 35903 ft | 467 kts | 263° |
| 2026-04-25 06:42 | -2.61706 | -56.42453 | 35900 ft | 467 kts | 263° |
| 2026-04-25 06:43 | -2.62448 | -56.48890 | 35902 ft | 466 kts | 263° |
| 2026-04-25 06:43 | -2.63188 | -56.55295 | 35902 ft | 466 kts | 263° |
| 2026-04-25 06:44 | -2.63934 | -56.61754 | 35902 ft | 466 kts | 263° |
| 2026-04-25 06:44 | -2.64679 | -56.68212 | 35900 ft | 465 kts | 263° |
| 2026-04-25 06:45 | -2.65417 | -56.74611 | 35904 ft | 466 kts | 263° |
| 2026-04-25 06:45 | -2.66164 | -56.81084 | 35903 ft | 466 kts | 263° |
| 2026-04-25 06:46 | -2.66905 | -56.87513 | 35903 ft | 465 kts | 263° |
| 2026-04-25 06:46 | -2.67640 | -56.93908 | 35907 ft | 466 kts | 263° |
| 2026-04-25 06:47 | -2.68378 | -57.00323 | 35908 ft | 464 kts | 263° |
| 2026-04-25 06:47 | -2.69115 | -57.06724 | 35908 ft | 465 kts | 263° |
| 2026-04-25 06:48 | -2.69855 | -57.13162 | 35904 ft | 466 kts | 263° |
| 2026-04-25 06:48 | -2.70593 | -57.19590 | 35908 ft | 467 kts | 263° |
| 2026-04-25 06:49 | -2.71335 | -57.26054 | 35907 ft | 465 kts | 263° |
| 2026-04-25 06:49 | -2.72069 | -57.32449 | 35905 ft | 466 kts | 263° |
| 2026-04-25 06:50 | -2.72809 | -57.38899 | 35909 ft | 466 kts | 263° |
| 2026-04-25 06:50 | -2.73545 | -57.45308 | 35909 ft | 466 kts | 263° |
| 2026-04-25 06:51 | -2.74285 | -57.51759 | 35911 ft | 467 kts | 263° |
| 2026-04-25 06:51 | -2.75023 | -57.58203 | 35908 ft | 467 kts | 263° |
| 2026-04-25 06:52 | -2.75764 | -57.64662 | 35910 ft | 467 kts | 263° |
| 2026-04-25 06:52 | -2.76501 | -57.71111 | 35913 ft | 466 kts | 263° |
| 2026-04-25 06:53 | -2.77233 | -57.77541 | 35905 ft | 467 kts | 263° |
| 2026-04-25 06:53 | -2.77963 | -57.83979 | 35908 ft | 467 kts | 263° |
| 2026-04-25 06:54 | -2.78692 | -57.90427 | 35911 ft | 467 kts | 263° |
| 2026-04-25 06:54 | -2.79427 | -57.96858 | 35909 ft | 466 kts | 263° |
| 2026-04-25 06:55 | -2.80164 | -58.03288 | 35904 ft | 465 kts | 263° |
| 2026-04-25 06:55 | -2.80901 | -58.09718 | 35900 ft | 467 kts | 263° |
| 2026-04-25 06:56 | -2.81643 | -58.16194 | 35900 ft | 466 kts | 263° |
| 2026-04-25 06:56 | -2.82379 | -58.22622 | 35898 ft | 466 kts | 263° |
| 2026-04-25 06:57 | -2.83116 | -58.29073 | 35897 ft | 468 kts | 263° |
| 2026-04-25 06:57 | -2.83851 | -58.35511 | 35893 ft | 465 kts | 263° |
| 2026-04-25 06:57 | -2.84213 | -58.38691 | 35742 ft | 458 kts | 263° |
| 2026-04-25 06:58 | -2.84568 | -58.41806 | 35556 ft | 447 kts | 263° |
| 2026-04-25 06:58 | -2.84917 | -58.44874 | 35188 ft | 440 kts | 263° |
| 2026-04-25 06:58 | -2.85260 | -58.47889 | 34733 ft | 436 kts | 263° |
| 2026-04-25 06:58 | -2.85589 | -58.50882 | 34254 ft | 432 kts | 264° |
| 2026-04-25 06:59 | -2.85821 | -58.53885 | 33766 ft | 428 kts | 266° |
| 2026-04-25 06:59 | -2.85969 | -58.56826 | 33285 ft | 425 kts | 268° |
| 2026-04-25 06:59 | -2.86087 | -58.59787 | 32801 ft | 421 kts | 268° |
| 2026-04-25 06:59 | -2.86197 | -58.62701 | 32346 ft | 418 kts | 268° |
| 2026-04-25 07:00 | -2.86307 | -58.65564 | 31874 ft | 416 kts | 268° |
| 2026-04-25 07:00 | -2.86424 | -58.68446 | 31397 ft | 413 kts | 268° |
| 2026-04-25 07:00 | -2.86545 | -58.71311 | 30919 ft | 411 kts | 268° |
| 2026-04-25 07:00 | -2.86673 | -58.74152 | 30442 ft | 408 kts | 268° |
| 2026-04-25 07:01 | -2.86802 | -58.76989 | 29968 ft | 406 kts | 268° |
| 2026-04-25 07:01 | -2.86933 | -58.79809 | 29495 ft | 403 kts | 268° |
| 2026-04-25 07:01 | -2.87064 | -58.82594 | 29027 ft | 401 kts | 268° |
| 2026-04-25 07:01 | -2.87196 | -58.85362 | 28564 ft | 398 kts | 267° |
| 2026-04-25 07:02 | -2.87328 | -58.88110 | 28099 ft | 396 kts | 268° |
| 2026-04-25 07:02 | -2.87460 | -58.90848 | 27637 ft | 394 kts | 268° |
| 2026-04-25 07:02 | -2.87592 | -58.93561 | 27171 ft | 393 kts | 268° |
| 2026-04-25 07:02 | -2.87724 | -58.96314 | 26701 ft | 391 kts | 267° |
| 2026-04-25 07:03 | -2.87853 | -58.99005 | 26240 ft | 389 kts | 267° |
| 2026-04-25 07:03 | -2.87982 | -59.01676 | 25781 ft | 387 kts | 268° |
| 2026-04-25 07:03 | -2.88113 | -59.04382 | 25315 ft | 384 kts | 267° |
| 2026-04-25 07:03 | -2.88240 | -59.07034 | 24855 ft | 383 kts | 267° |
| 2026-04-25 07:04 | -2.88368 | -59.09665 | 24398 ft | 381 kts | 267° |
| 2026-04-25 07:04 | -2.88496 | -59.12321 | 23940 ft | 379 kts | 267° |
| 2026-04-25 07:04 | -2.88621 | -59.14940 | 23492 ft | 377 kts | 267° |
| 2026-04-25 07:04 | -2.88745 | -59.17541 | 23044 ft | 375 kts | 267° |
| 2026-04-25 07:05 | -2.88868 | -59.20126 | 22599 ft | 373 kts | 267° |
| 2026-04-25 07:05 | -2.88991 | -59.22709 | 22156 ft | 371 kts | 267° |
| 2026-04-25 07:05 | -2.89112 | -59.25256 | 21712 ft | 370 kts | 267° |
| 2026-04-25 07:05 | -2.89237 | -59.27838 | 21262 ft | 368 kts | 268° |
| 2026-04-25 07:06 | -2.89360 | -59.30380 | 20817 ft | 367 kts | 268° |
| 2026-04-25 07:06 | -2.89482 | -59.32908 | 20370 ft | 365 kts | 268° |
| 2026-04-25 07:06 | -2.89604 | -59.35446 | 19921 ft | 363 kts | 268° |
| 2026-04-25 07:06 | -2.89725 | -59.37951 | 19478 ft | 361 kts | 268° |
| 2026-04-25 07:07 | -2.89846 | -59.40446 | 19034 ft | 359 kts | 268° |
| 2026-04-25 07:07 | -2.89966 | -59.42925 | 18595 ft | 357 kts | 268° |
| 2026-04-25 07:07 | -2.90084 | -59.45379 | 18144 ft | 347 kts | 269° |
| 2026-04-25 07:07 | -2.90198 | -59.47736 | 17745 ft | 335 kts | 269° |
| 2026-04-25 07:08 | -2.90310 | -59.50050 | 17337 ft | 325 kts | 269° |
| 2026-04-25 07:08 | -2.90418 | -59.52269 | 16977 ft | 316 kts | 269° |
| 2026-04-25 07:08 | -2.90522 | -59.54462 | 16555 ft | 316 kts | 269° |
| 2026-04-25 07:08 | -2.90623 | -59.56631 | 16170 ft | 314 kts | 269° |
| 2026-04-25 07:09 | -2.90725 | -59.58816 | 15784 ft | 313 kts | 269° |
| 2026-04-25 07:09 | -2.90827 | -59.60990 | 15400 ft | 311 kts | 269° |
| 2026-04-25 07:09 | -2.90928 | -59.63117 | 15019 ft | 309 kts | 269° |
| 2026-04-25 07:09 | -2.91031 | -59.65277 | 14633 ft | 308 kts | 269° |
| 2026-04-25 07:10 | -2.91131 | -59.67399 | 14255 ft | 306 kts | 269° |
| 2026-04-25 07:10 | -2.91231 | -59.69511 | 13881 ft | 304 kts | 270° |
| 2026-04-25 07:10 | -2.91332 | -59.71639 | 13502 ft | 303 kts | 270° |
| 2026-04-25 07:10 | -2.91430 | -59.73712 | 13123 ft | 300 kts | 269° |
| 2026-04-25 07:11 | -2.91528 | -59.75798 | 12757 ft | 298 kts | 269° |
| 2026-04-25 07:11 | -2.91624 | -59.77852 | 12397 ft | 296 kts | 269° |
| 2026-04-25 07:11 | -2.91721 | -59.79907 | 12039 ft | 295 kts | 269° |
| 2026-04-25 07:11 | -2.91816 | -59.81936 | 11674 ft | 294 kts | 269° |
| 2026-04-25 07:12 | -2.91912 | -59.83974 | 11292 ft | 292 kts | 269° |
| 2026-04-25 07:12 | -2.92106 | -59.88026 | 10580 ft | 289 kts | 269° |
| 2026-04-25 07:12 | -2.92201 | -59.90015 | 10221 ft | 288 kts | 269° |
| 2026-04-25 07:13 | -2.92295 | -59.92031 | 9858 ft | 287 kts | 269° |
| 2026-04-25 07:13 | -2.92386 | -59.93967 | 9651 ft | 280 kts | 269° |
| 2026-04-25 07:13 | -2.92478 | -59.95924 | 9286 ft | 280 kts | 270° |
| 2026-04-25 07:13 | -2.92569 | -59.97879 | 8943 ft | 280 kts | 269° |
| 2026-04-25 07:14 | -2.92659 | -59.99805 | 8611 ft | 279 kts | 269° |
| 2026-04-25 07:14 | -2.92750 | -60.01734 | 8271 ft | 278 kts | 269° |
| 2026-04-25 07:14 | -2.92841 | -60.03687 | 7942 ft | 278 kts | 269° |
| 2026-04-25 07:14 | -2.92930 | -60.05587 | 7739 ft | 275 kts | 269° |
| 2026-04-25 07:15 | -2.93020 | -60.07512 | 7251 ft | 281 kts | 269° |
| 2026-04-25 07:15 | -2.93111 | -60.09480 | 6879 ft | 282 kts | 269° |
| 2026-04-25 07:15 | -2.93203 | -60.11433 | 6528 ft | 281 kts | 269° |
| 2026-04-25 07:15 | -2.93294 | -60.13307 | 6215 ft | 280 kts | 269° |
| 2026-04-25 07:16 | -2.93387 | -60.15262 | 5905 ft | 278 kts | 268° |
| 2026-04-25 07:16 | -2.93478 | -60.17180 | 5580 ft | 277 kts | 268° |
| 2026-04-25 07:16 | -2.93593 | -60.19071 | 5241 ft | 270 kts | 264° |
| 2026-04-25 07:16 | -2.94032 | -60.20875 | 5019 ft | 258 kts | 243° |
| 2026-04-25 07:17 | -2.95137 | -60.22187 | 4776 ft | 240 kts | 210° |
| 2026-04-25 07:17 | -2.96623 | -60.22771 | 4320 ft | 224 kts | 184° |
| 2026-04-25 07:17 | -2.98127 | -60.22852 | 3865 ft | 213 kts | 175° |
| 2026-04-25 07:17 | -2.99592 | -60.22848 | 3507 ft | 205 kts | 176° |
| 2026-04-25 07:18 | -3.00992 | -60.22837 | 3268 ft | 195 kts | 171° |
| 2026-04-25 07:18 | -3.02299 | -60.22512 | 3098 ft | 185 kts | 144° |
| 2026-04-25 07:18 | -3.03178 | -60.21655 | 2989 ft | 170 kts | 118° |
| 2026-04-25 07:18 | -3.03629 | -60.20616 | 2981 ft | 161 kts | 102° |
| 2026-04-25 07:19 | -3.03780 | -60.19516 | 2815 ft | 159 kts | 92° |
| 2026-04-25 07:19 | -3.03815 | -60.18421 | 2643 ft | 152 kts | 90° |
| 2026-04-25 07:19 | -3.03826 | -60.17359 | 2379 ft | 150 kts | 90° |
| 2026-04-25 07:19 | -3.03831 | -60.16351 | 2192 ft | 140 kts | 89° |
| 2026-04-25 07:20 | -3.03834 | -60.15381 | 2049 ft | 142 kts | 89° |
| 2026-04-25 07:20 | -3.03838 | -60.14417 | 1817 ft | 138 kts | 89° |
| 2026-04-25 07:20 | -3.03839 | -60.13453 | 1660 ft | 138 kts | 89° |
| 2026-04-25 07:20 | -3.03842 | -60.12479 | 1467 ft | 139 kts | 90° |
| 2026-04-25 07:21 | -3.03846 | -60.11506 | 1286 ft | 143 kts | 90° |
| 2026-04-25 07:21 | -3.03848 | -60.10507 | 1096 ft | 143 kts | 90° |
| 2026-04-25 07:21 | -3.03852 | -60.09506 | 910 ft | 145 kts | 90° |
| 2026-04-25 07:21 | -3.03854 | -60.08496 | 725 ft | 147 kts | 90° |
| 2026-04-25 07:22 | -3.03855 | -60.07455 | 515 ft | 148 kts | 90° |
| 2026-04-25 07:22 | -3.03848 | -60.06424 | 290 ft | 149 kts | 89° |
| 2026-04-25 07:22 | -3.03850 | -60.05421 | 241 ft | 129 kts | 91° |
| 2026-04-25 07:22 | -3.03859 | -60.04688 | 242 ft | 83 kts | 90° |
| 2026-04-25 07:23 | -3.03860 | -60.04234 | 241 ft | 48 kts | 89° |
| 2026-04-25 07:23 | -3.03860 | -60.03930 | 241 ft | 31 kts | 90° |
| 2026-04-25 07:23 | -3.03825 | -60.03779 | 241 ft | 19 kts | 29° |
| 2026-04-25 07:23 | -3.03743 | -60.03781 | 241 ft | 0 kts | 332° |
| 2026-04-25 07:24 | -3.03727 | -60.03791 | 241 ft | 8 kts | 323° |
| 2026-04-25 07:24 | -3.03678 | -60.03873 | 241 ft | 17 kts | 286° |
| 2026-04-25 07:24 | -3.03638 | -60.04018 | 241 ft | 25 kts | 285° |
| 2026-04-25 07:25 | -3.03586 | -60.04198 | 241 ft | 26 kts | 291° |
| 2026-04-25 07:25 | -3.03478 | -60.04339 | 241 ft | 25 kts | 326° |
| 2026-04-25 07:25 | -3.03337 | -60.04417 | 241 ft | 21 kts | 284° |
| 2026-04-25 07:25 | -3.03349 | -60.04525 | 241 ft | 9 kts | 262° |
| 2026-04-25 07:26 | -3.03352 | -60.04559 | 241 ft | 3 kts | 282° |
| 2026-04-25 07:26 | -3.03340 | -60.04572 | 240 ft | 2 kts | 340° |
| 2026-04-25 07:26 | -3.03326 | -60.04577 | 241 ft | 1 kts | 345° |
| 2026-04-25 07:26 | -3.03313 | -60.04578 | 240 ft | 1 kts | 355° |
| 2026-04-25 07:27 | -3.03301 | -60.04579 | 240 ft | 1 kts | 355° |
| 2026-04-25 07:27 | -3.03292 | -60.04580 | 241 ft | 1 kts | 358° |
| 2026-04-25 07:27 | -3.03286 | -60.04580 | 240 ft | 0 kts | 358° |
| 2026-04-25 07:27 | -3.03283 | -60.04580 | 240 ft | 0 kts | 358° |
| 2026-04-25 07:28 | -3.03281 | -60.04580 | 241 ft | 0 kts | 358° |
| 2026-04-25 07:28 | -3.03280 | -60.04580 | 240 ft | 0 kts | 358° |